Time;durP1;ratioP1;P1;durP2;ratioP2;P2;SDS_P1;SDS_P2;PMS_P1;PMS_P2;Temp;Humidity;BMP_temperature;BMP_pressure;BME280_temperature;BME280_humidity;BME280_pressure;Samples;Min_cycle;Max_cycle;Signal;HPM_P1;HPM_P2
2021/08/03 00:01:36;;;;;;;3.02;1.98;;;;;;;21.42;100.00;98718.23;1735949;81;20939;-62
2021/08/03 00:04:15;;;;;;;;;;;;;;;21.38;100.00;98712.64;1732467;82;21412;-63
2021/08/03 00:06:51;;;;;;;2.83;1.90;;;;;;;21.35;100.00;98720.87;1750310;80;20421;-65
2021/08/03 00:09:21;;;;;;;2.00;1.80;;;;;;;21.32;100.00;98723.73;1757937;80;21501;-63
2021/08/03 00:11:49;;;;;;;4.85;1.92;;;;;;;21.30;100.00;98729.66;1760168;81;21018;-64
2021/08/03 00:14:21;;;;;;;2.17;1.98;;;;;;;21.28;100.00;98720.31;1759970;80;21427;-64
2021/08/03 00:16:52;;;;;;;3.85;1.87;;;;;;;21.28;100.00;98716.77;1758308;81;21523;-66
2021/08/03 00:19:25;;;;;;;4.08;1.65;;;;;;;21.28;100.00;98718.11;1759903;80;20901;-66
2021/08/03 00:21:54;;;;;;;1.95;1.75;;;;;;;21.29;100.00;98719.87;1686230;83;21399;-67
2021/08/03 00:24:25;;;;;;;1.95;1.85;;;;;;;21.31;100.00;98726.88;1753415;80;21946;-68
2021/08/03 00:26:54;;;;;;;2.90;1.67;;;;;;;21.30;100.00;98730.52;1760330;80;20968;-68
2021/08/03 00:29:23;;;;;;;5.62;2.20;;;;;;;21.30;100.00;98739.05;1760052;81;21166;-66
2021/08/03 00:31:53;;;;;;;1.60;1.50;;;;;;;21.30;100.00;98739.05;1763315;79;21520;-67
2021/08/03 00:34:22;;;;;;;2.35;1.87;;;;;;;21.30;100.00;98744.41;1759952;80;21485;-68
2021/08/03 00:36:54;;;;;;;4.95;2.10;;;;;;;21.30;100.00;98749.78;1759939;80;20982;-68
2021/08/03 00:39:24;;;;;;;3.58;1.72;;;;;;;21.31;100.00;98752.38;1759919;80;21469;-68
2021/08/03 00:42:00;;;;;;;4.03;1.98;;;;;;;21.32;100.00;98749.21;1763879;80;21394;-67
2021/08/03 00:44:43;;;;;;;4.50;1.60;;;;;;;21.31;100.00;98753.72;1765262;80;21022;-68
2021/08/03 00:47:13;;;;;;;3.98;1.90;;;;;;;21.25;100.00;98748.66;1737928;81;20980;-68
2021/08/03 00:49:44;;;;;;;2.50;1.87;;;;;;;21.24;100.00;98762.16;1757714;80;20920;-66
2021/08/03 00:52:18;;;;;;;10.88;2.35;;;;;;;21.21;100.00;98761.82;1758124;80;21090;-68
2021/08/03 00:54:50;;;;;;;2.47;2.27;;;;;;;21.21;100.00;98769.00;1758682;80;22015;-68
2021/08/03 00:57:19;;;;;;;5.62;2.60;;;;;;;21.20;100.00;98768.14;1760171;80;20966;-68
2021/08/03 00:59:48;;;;;;;13.68;2.33;;;;;;;21.18;100.00;98768.70;1760019;80;20929;-68
2021/08/03 01:02:19;;;;;;;3.20;2.10;;;;;;;21.20;100.00;98765.45;1762376;80;20991;-68
2021/08/03 01:04:50;;;;;;;4.12;2.10;;;;;;;21.18;100.00;98775.41;1765467;80;21014;-68
2021/08/03 01:07:43;;;;;;;3.12;2.15;;;;;;;21.13;100.00;98777.47;1760038;80;21570;-68
2021/08/03 01:10:35;;;;;;;2.20;2.00;;;;;;;21.12;100.00;98782.92;1759618;80;21083;-64
2021/08/03 01:13:16;;;;;;;2.00;1.80;;;;;;;21.13;100.00;98788.20;1760898;79;21059;-66
2021/08/03 01:16:01;;;;;;;4.33;2.25;;;;;;;21.12;100.00;98786.94;1763573;80;20926;-67
2021/08/03 01:18:50;;;;;;;5.22;2.02;;;;;;;21.10;100.00;98789.70;1760346;80;21081;-66
2021/08/03 01:21:54;;;;;;;3.27;2.17;;;;;;;21.08;100.00;98794.29;1759466;80;21989;-67
2021/08/03 01:25:01;;;;;;;5.00;1.98;;;;;;;21.05;100.00;98789.95;1762399;80;20924;-66
2021/08/03 01:28:17;;;;;;;4.75;2.40;;;;;;;21.00;100.00;98787.14;1752839;80;21024;-66
2021/08/03 01:30:47;;;;;;;3.50;2.63;;;;;;;20.94;100.00;98780.77;1762420;80;20947;-66
2021/08/03 01:33:20;;;;;;;2.85;2.22;;;;;;;20.84;100.00;98789.78;1760243;80;21709;-66
2021/08/03 01:35:50;;;;;;;2.65;2.15;;;;;;;20.78;100.00;98789.21;1760587;80;21249;-66
2021/08/03 01:38:21;;;;;;;3.40;2.35;;;;;;;20.72;100.00;98792.61;1760140;80;21688;-66
2021/08/03 01:40:51;;;;;;;2.92;2.58;;;;;;;20.71;100.00;98809.64;1760072;80;20903;-66
2021/08/03 01:43:23;;;;;;;2.90;2.52;;;;;;;20.68;100.00;98805.78;1764286;79;21544;-69
2021/08/03 01:45:54;;;;;;;5.42;2.40;;;;;;;20.65;100.00;98806.41;1764376;79;20966;-69
2021/08/03 01:48:26;;;;;;;4.75;2.52;;;;;;;20.60;100.00;98805.31;1737902;80;21454;-69
2021/08/03 01:50:55;;;;;;;4.35;3.17;;;;;;;20.57;100.00;98808.16;1765839;79;20940;-65
2021/08/03 01:53:27;;;;;;;3.05;2.37;;;;;;;20.55;100.00;98810.52;1724412;81;20932;-66
2021/08/03 01:55:58;;;;;;;4.12;2.33;;;;;;;20.50;100.00;98804.53;1742501;82;21430;-66
2021/08/03 01:58:30;;;;;;;6.33;2.40;;;;;;;20.45;100.00;98805.25;1725100;79;20997;-66
2021/08/03 02:01:01;;;;;;;2.87;2.35;;;;;;;20.40;100.00;98806.83;1740145;80;21159;-67
2021/08/03 02:03:32;;;;;;;3.75;2.10;;;;;;;20.36;100.00;98794.50;1760835;79;21442;-67
2021/08/03 02:06:05;;;;;;;2.92;2.27;;;;;;;20.33;100.00;98799.98;1760864;79;21526;-67
2021/08/03 02:08:35;;;;;;;2.47;2.10;;;;;;;20.33;100.00;98811.56;1760327;79;21060;-67
2021/08/03 02:11:06;;;;;;;;;;;;;;;20.33;100.00;98808.02;1762553;80;20941;-67
2021/08/03 02:13:35;;;;;;;4.92;2.25;;;;;;;20.32;100.00;98812.51;1760206;80;21159;-66
2021/08/03 02:16:05;;;;;;;2.70;2.30;;;;;;;20.32;100.00;98817.00;1740907;80;20912;-66
2021/08/03 02:18:35;;;;;;;3.55;2.15;;;;;;;20.31;100.00;98815.27;1720479;81;21424;-64
2021/08/03 02:21:06;;;;;;;5.03;2.08;;;;;;;20.28;100.00;98822.98;1732785;80;21482;-64
2021/08/03 02:23:34;;;;;;;4.85;2.42;;;;;;;20.25;100.00;98822.27;1765747;79;20934;-64
2021/08/03 02:26:04;;;;;;;5.50;2.40;;;;;;;20.21;100.00;98827.39;1764990;80;21142;-65
2021/08/03 02:28:33;;;;;;;4.87;2.80;;;;;;;20.17;100.00;98832.50;1765832;79;21493;-65
2021/08/03 02:31:10;;;;;;;6.25;2.42;;;;;;;20.16;100.00;98841.02;1760433;79;20970;-67
2021/08/03 02:33:53;;;;;;;5.10;2.52;;;;;;;20.16;100.00;98845.50;1760088;80;21122;-67
2021/08/03 02:36:24;;;;;;;4.50;2.65;;;;;;;20.17;100.00;98843.22;1760118;80;21721;-67
2021/08/03 02:39:03;;;;;;;7.12;2.47;;;;;;;20.15;100.00;98843.30;1760046;81;21541;-66
2021/08/03 02:41:34;;;;;;;11.35;3.58;;;;;;;20.10;100.00;98844.86;1736259;81;20948;-67
2021/08/03 02:44:06;;;;;;;6.12;3.30;;;;;;;20.02;100.00;98848.39;1737825;81;21495;-67
2021/08/03 02:46:40;;;;;;;5.67;3.37;;;;;;;19.97;100.00;98839.72;1763497;81;21478;-67
2021/08/03 02:49:11;;;;;;;4.97;3.10;;;;;;;19.92;100.00;98837.74;1762676;81;20976;-67
2021/08/03 02:51:39;;;;;;;9.20;3.17;;;;;;;19.88;100.00;98837.97;1759077;80;21521;-69
2021/08/03 02:54:19;;;;;;;6.45;2.87;;;;;;;19.83;100.00;98839.50;1755248;81;20869;-68
2021/08/03 02:56:51;;;;;;;9.20;2.50;;;;;;;19.79;100.00;98837.44;1752853;81;21421;-67
2021/08/03 02:59:19;;;;;;;5.03;2.62;;;;;;;19.78;100.00;98846.41;1750845;82;21081;-66
2021/08/03 03:01:56;;;;;;;3.58;2.40;;;;;;;19.78;100.00;98851.77;1751215;81;20868;-67
2021/08/03 03:04:28;;;;;;;6.08;2.80;;;;;;;19.80;100.00;98855.70;1732967;82;21101;-69
2021/08/03 03:07:06;;;;;;;2.83;2.55;;;;;;;19.79;100.00;98849.95;1708348;82;21529;-68
2021/08/03 03:09:36;;;;;;;3.40;2.87;;;;;;;19.78;100.00;98862.47;1752010;81;21463;-68
2021/08/03 03:12:07;;;;;;;3.10;2.52;;;;;;;19.73;100.00;98860.48;1752660;81;21465;-69
2021/08/03 03:14:43;;;;;;;6.72;4.97;;;;;;;19.70;100.00;98870.47;1754136;80;21398;-67
2021/08/03 03:17:11;;;;;;;47.70;34.20;;;;;;;19.69;100.00;98882.11;1760805;81;21500;-70
2021/08/03 03:19:41;;;;;;;44.42;35.90;;;;;;;19.71;100.00;98873.55;1762409;80;20983;-70
2021/08/03 03:22:08;;;;;;;30.40;23.80;;;;;;;19.73;100.00;98871.19;1763255;81;20929;-65
2021/08/03 03:24:38;;;;;;;16.35;13.00;;;;;;;19.76;100.00;98880.41;1763223;80;20893;-62
2021/08/03 03:27:08;;;;;;;11.53;9.50;;;;;;;19.78;100.00;98885.69;1762926;81;20972;-67
2021/08/03 03:29:40;;;;;;;9.08;6.92;;;;;;;19.79;100.00;98890.10;1763509;81;21692;-65
2021/08/03 03:32:10;;;;;;;11.12;5.50;;;;;;;19.83;100.00;98886.80;1761590;81;21478;-69
2021/08/03 03:34:40;;;;;;;13.45;6.67;;;;;;;19.89;100.00;98897.25;1726381;82;21383;-70
2021/08/03 03:37:09;;;;;;;12.00;7.17;;;;;;;19.97;100.00;98899.95;1755613;81;20960;-67
2021/08/03 03:39:42;;;;;;;15.00;8.38;;;;;;;20.04;100.00;98893.36;1757456;81;21473;-67
2021/08/03 03:42:11;;;;;;;17.27;9.73;;;;;;;20.12;100.00;98902.36;1731793;81;21515;-68
2021/08/03 03:44:43;;;;;;;17.82;10.32;;;;;;;20.19;100.00;98901.12;1765272;79;20923;-66
2021/08/03 03:47:20;;;;;;;24.40;12.93;;;;;;;20.25;100.00;98907.51;1765341;79;20975;-66
2021/08/03 03:49:55;;;;;;;25.15;13.60;;;;;;;20.32;100.00;98911.63;1765713;79;20903;-63
2021/08/03 03:52:25;;;;;;;22.60;13.48;;;;;;;20.40;100.00;98912.64;1765393;80;20883;-67
2021/08/03 03:54:54;;;;;;;26.25;14.38;;;;;;;20.49;100.00;98909.50;1739277;81;21463;-65
2021/08/03 03:57:23;;;;;;;20.65;10.35;;;;;;;20.56;100.00;98910.93;1759997;80;20933;-68
2021/08/03 03:59:52;;;;;;;15.85;7.22;;;;;;;20.61;100.00;98907.55;1762905;79;20949;-68
2021/08/03 04:02:21;;;;;;;15.63;6.28;;;;;;;20.67;100.00;98911.25;1759776;80;20976;-68
2021/08/03 04:04:51;;;;;;;7.97;5.30;;;;;;;20.71;100.00;98912.83;1758491;80;21699;-67
2021/08/03 04:07:20;;;;;;;7.83;4.55;;;;;;;20.77;100.00;98914.80;1758779;80;21112;-67
2021/08/03 04:09:48;;;;;;;4.37;3.85;;;;;;;20.82;100.00;98918.15;1758226;81;21575;-66
2021/08/03 04:12:17;;;;;;;6.95;3.85;;;;;;;20.91;100.00;98919.88;1759156;81;21699;-65
2021/08/03 04:14:45;;;;;;;4.90;3.40;;;;;;;20.97;100.00;98922.23;1728302;81;20954;-64
2021/08/03 04:17:18;;;;;;;3.85;3.40;;;;;;;21.04;100.00;98923.66;1760271;80;21423;-65
2021/08/03 04:19:46;;;;;;;5.58;3.10;;;;;;;21.12;100.00;98927.27;1760245;80;21122;-65
2021/08/03 04:22:14;;;;;;;4.17;2.98;;;;;;;21.18;100.00;98926.95;1759929;80;20908;-65
2021/08/03 04:24:42;;;;;;;4.20;2.87;;;;;;;21.25;100.00;98935.58;1759987;80;21035;-65
2021/08/03 04:27:10;;;;;;;3.05;2.72;;;;;;;21.33;100.00;98929.36;1759990;80;20980;-65
2021/08/03 04:29:38;;;;;;;2.35;2.12;;;;;;;21.41;100.00;98931.63;1760034;80;20854;-65
2021/08/03 04:32:07;;;;;;;3.65;2.45;;;;;;;21.50;100.00;98927.11;1760005;80;21149;-65
2021/08/03 04:34:35;;;;;;;3.35;2.27;;;;;;;21.59;100.00;98931.50;1759943;80;20992;-65
2021/08/03 04:37:08;;;;;;;3.20;2.00;;;;;;;21.65;100.00;98928.48;1760011;80;20865;-64
2021/08/03 04:39:33;;;;;;;2.55;2.35;;;;;;;21.74;100.00;98924.90;1759197;80;20866;-65
2021/08/03 04:42:03;;;;;;;3.22;2.33;;;;;;;21.82;100.00;98934.77;1765453;81;20958;-65
2021/08/03 04:44:31;;;;;;;2.52;2.20;;;;;;;21.85;100.00;98942.66;1762787;81;21145;-64
2021/08/03 04:47:00;;;;;;;3.58;2.40;;;;;;;21.85;100.00;98943.53;1765334;81;21387;-64
2021/08/03 04:49:28;;;;;;;4.28;2.58;;;;;;;21.87;100.00;98940.28;1765694;81;20904;-65
2021/08/03 04:51:55;;;;;;;3.98;2.60;;;;;;;21.87;100.00;98944.31;1765367;81;21054;-65
2021/08/03 04:54:24;;;;;;;2.90;2.60;;;;;;;21.86;100.00;98939.02;1765393;81;21023;-66
2021/08/03 04:56:52;;;;;;;2.90;2.50;;;;;;;21.87;100.00;98936.25;1765385;81;21187;-65
2021/08/03 04:59:20;;;;;;;3.35;2.42;;;;;;;21.88;100.00;98935.30;1765716;81;21522;-65
2021/08/03 05:01:48;;;;;;;2.87;2.45;;;;;;;21.90;100.00;98933.87;1765583;81;20888;-65
2021/08/03 05:04:17;;;;;;;3.58;2.67;;;;;;;21.92;100.00;98933.31;1765516;81;20865;-64
2021/08/03 05:06:45;;;;;;;5.50;2.60;;;;;;;21.94;100.00;98928.24;1765617;81;21035;-65
2021/08/03 05:09:12;;;;;;;4.87;2.80;;;;;;;21.97;100.00;98933.92;1765818;81;21124;-65
2021/08/03 05:11:41;;;;;;;2.55;2.08;;;;;;;22.02;100.00;98935.00;1765300;81;20988;-66
2021/08/03 05:14:08;;;;;;;3.90;2.42;;;;;;;22.09;100.00;98941.80;1765760;81;20940;-65
2021/08/03 05:16:38;;;;;;;6.97;2.33;;;;;;;22.12;100.00;98945.18;1716470;82;20947;-65
2021/08/03 05:19:05;;;;;;;11.08;2.90;;;;;;;22.16;100.00;98945.39;1765861;81;20845;-66
2021/08/03 05:21:33;;;;;;;3.47;2.70;;;;;;;22.24;100.00;98950.36;1765567;81;21432;-65
2021/08/03 05:24:01;;;;;;;7.75;2.95;;;;;;;22.34;100.00;98950.70;1765433;81;20865;-65
2021/08/03 05:26:29;;;;;;;13.22;5.72;;;;;;;22.44;100.00;98958.16;1765511;81;21024;-64
2021/08/03 05:28:58;;;;;;;7.08;3.58;;;;;;;22.53;100.00;98954.06;1765784;81;20932;-64
2021/08/03 05:31:26;;;;;;;5.50;2.98;;;;;;;22.60;100.00;98954.09;1763013;81;21608;-66
2021/08/03 05:33:55;;;;;;;4.12;3.05;;;;;;;22.69;100.00;98955.38;1765488;81;21168;-66
2021/08/03 05:36:23;;;;;;;5.80;3.05;;;;;;;22.74;100.00;98950.16;1765580;81;21499;-66
2021/08/03 05:38:51;;;;;;;8.83;3.15;;;;;;;22.81;100.00;98947.53;1765432;81;21012;-66
2021/08/03 05:41:20;;;;;;;8.73;2.85;;;;;;;22.89;100.00;98951.97;1765310;81;21411;-66
2021/08/03 05:43:49;;;;;;;4.65;3.00;;;;;;;22.96;100.00;98951.60;1765543;81;20912;-65
2021/08/03 05:46:18;;;;;;;4.87;3.00;;;;;;;23.04;100.00;98954.70;1765471;81;21207;-67
2021/08/03 05:48:46;;;;;;;4.17;3.12;;;;;;;23.13;100.00;98958.18;1762714;80;21049;-67
2021/08/03 05:51:14;;;;;;;4.87;3.10;;;;;;;23.19;100.00;98950.63;1758233;80;20890;-66
2021/08/03 05:53:42;;;;;;;3.42;3.05;;;;;;;23.26;100.00;98955.64;1758698;80;21526;-66
2021/08/03 05:56:11;;;;;;;5.00;2.92;;;;;;;23.32;100.00;98949.41;1755264;80;21406;-66
2021/08/03 05:58:39;;;;;;;3.27;2.67;;;;;;;23.39;100.00;98957.48;1719955;81;21816;-66
2021/08/03 06:01:07;;;;;;;3.00;2.70;;;;;;;23.47;100.00;98954.33;1759341;80;21086;-66
2021/08/03 06:03:34;;;;;;;2.98;2.60;;;;;;;23.53;100.00;98953.95;1762502;80;20954;-66
2021/08/03 06:06:06;;;;;;;3.02;2.67;;;;;;;23.60;100.00;98951.77;1762577;80;21020;-66
2021/08/03 06:08:36;;;;;;;4.50;2.65;;;;;;;23.67;100.00;98960.75;1760140;80;21591;-66
2021/08/03 06:11:04;;;;;;;2.90;2.42;;;;;;;23.74;100.00;98954.02;1762569;80;21133;-66
2021/08/03 06:13:31;;;;;;;4.03;2.83;;;;;;;23.81;100.00;98959.39;1758009;80;21100;-65
2021/08/03 06:16:01;;;;;;;4.80;2.83;;;;;;;23.88;100.00;98963.05;1755378;80;21796;-65
2021/08/03 06:18:36;;;;;;;3.52;2.65;;;;;;;23.97;100.00;98966.50;1754255;80;20906;-66
2021/08/03 06:21:04;;;;;;;2.85;2.37;;;;;;;24.05;100.00;98972.27;1761480;80;21049;-66
2021/08/03 06:23:32;;;;;;;5.72;2.40;;;;;;;24.13;100.00;98978.92;1761736;80;21147;-66
2021/08/03 06:26:01;;;;;;;4.45;2.02;;;;;;;24.21;100.00;98974.39;1759571;80;20941;-64
2021/08/03 06:28:30;;;;;;;6.15;2.17;;;;;;;24.29;100.00;98973.92;1765106;80;20937;-70
2021/08/03 06:30:58;;;;;;;3.92;2.35;;;;;;;24.38;100.00;98970.63;1761899;80;20944;-71
2021/08/03 06:33:27;;;;;;;4.40;2.40;;;;;;;24.46;100.00;98971.86;1756459;80;21008;-71
2021/08/03 06:35:55;;;;;;;12.82;9.95;;;;;;;24.55;100.00;98972.22;1760417;80;21111;-72
2021/08/03 06:38:22;;;;;;;9.93;7.47;;;;;;;24.63;100.00;98973.95;1761041;80;20884;-71
2021/08/03 06:41:04;;;;;;;10.65;4.20;;;;;;;24.72;100.00;98974.69;1751935;80;20994;-64
2021/08/03 06:43:32;;;;;;;4.28;3.00;;;;;;;24.81;100.00;98974.08;1739181;80;20955;-67
2021/08/03 06:46:03;;;;;;;4.37;2.92;;;;;;;24.89;100.00;98973.56;1744441;80;21433;-68
2021/08/03 06:48:58;;;;;;;22.02;3.15;;;;;;;24.94;100.00;98974.98;1741072;80;21203;-68
2021/08/03 06:51:28;;;;;;;5.70;2.83;;;;;;;25.01;100.00;98977.67;1603951;86;21113;-70
2021/08/03 06:53:56;;;;;;;6.58;2.92;;;;;;;25.10;100.00;98982.48;1600165;88;21478;-70
2021/08/03 06:56:25;;;;;;;4.90;2.60;;;;;;;25.16;100.00;98983.03;1652103;81;20996;-70
2021/08/03 06:59:04;;;;;;;4.28;2.52;;;;;;;25.20;100.00;98981.36;1745082;80;20891;-69
2021/08/03 07:01:55;;;;;;;4.08;2.72;;;;;;;25.27;100.00;98976.41;1739162;80;21035;-70
2021/08/03 07:04:44;;;;;;;12.93;3.15;;;;;;;25.34;100.00;98985.33;1744331;80;21600;-69
2021/08/03 07:07:11;;;;;;;38.23;4.83;;;;;;;25.42;100.00;98973.50;1744523;80;21006;-69
2021/08/03 07:09:45;;;;;;;8.45;3.12;;;;;;;25.54;100.00;98977.67;1744648;80;21022;-69
2021/08/03 07:12:14;;;;;;;14.15;3.37;;;;;;;25.61;100.00;98979.00;1741323;81;20967;-69
2021/08/03 07:14:42;;;;;;;4.75;2.80;;;;;;;25.66;100.00;98984.48;1744464;81;21161;-66
2021/08/03 07:17:14;;;;;;;4.05;2.60;;;;;;;25.70;100.00;98981.95;1743200;79;21537;-69
2021/08/03 07:19:43;;;;;;;5.37;3.15;;;;;;;25.77;100.00;98990.48;1744252;80;21091;-68
2021/08/03 07:22:13;;;;;;;7.60;2.90;;;;;;;25.84;100.00;98982.31;1719972;81;21034;-69
2021/08/03 07:24:47;;;;;;;9.33;3.62;;;;;;;25.92;100.00;98976.36;1744671;81;21476;-69
2021/08/03 07:27:15;;;;;;;4.97;3.50;;;;;;;26.00;100.00;98982.08;1719515;81;21822;-69
2021/08/03 07:29:44;;;;;;;6.90;3.72;;;;;;;26.07;100.00;98984.75;1744317;79;21025;-69
2021/08/03 07:32:16;;;;;;;5.95;3.25;;;;;;;26.15;100.00;98979.66;1717122;81;21042;-69
2021/08/03 07:34:47;;;;;;;3.30;3.00;;;;;;;26.24;100.00;98977.63;1744283;80;20954;-70
2021/08/03 07:37:16;;;;;;;3.75;2.92;;;;;;;26.30;100.00;98981.23;1755531;80;20893;-69
2021/08/03 07:39:45;;;;;;;20.60;4.15;;;;;;;26.39;100.00;98976.16;1755459;80;21472;-69
2021/08/03 07:42:13;;;;;;;4.03;2.92;;;;;;;26.49;100.00;98970.45;1758693;80;20981;-69
2021/08/03 07:44:43;;;;;;;5.85;2.83;;;;;;;26.58;100.00;98967.95;1760020;80;21615;-69
2021/08/03 07:47:17;;;;;;;3.72;2.50;;;;;;;26.68;100.00;98972.19;1732605;80;21101;-69
2021/08/03 07:49:45;;;;;;;4.03;2.50;;;;;;;26.78;100.00;98973.71;1704181;83;21063;-68
2021/08/03 07:52:14;;;;;;;3.80;2.45;;;;;;;26.86;97.86;98977.56;1729714;82;21590;-68
2021/08/03 07:54:44;;;;;;;4.22;2.40;;;;;;;26.93;96.75;98972.06;1729122;82;21601;-67
2021/08/03 07:57:12;;;;;;;3.80;2.30;;;;;;;27.05;94.98;98966.75;1730142;82;21042;-67
2021/08/03 07:59:40;;;;;;;3.52;2.72;;;;;;;27.15;93.34;98967.28;1752435;80;21482;-68
2021/08/03 08:02:09;;;;;;;39.20;4.12;;;;;;;27.26;92.94;98973.22;1711582;80;20914;-70
2021/08/03 08:04:37;;;;;;;9.45;2.70;;;;;;;27.35;92.12;98968.45;1756709;80;21148;-71
2021/08/03 08:07:05;;;;;;;3.08;2.45;;;;;;;27.44;92.58;98971.83;1757424;80;20932;-70
2021/08/03 08:09:33;;;;;;;2.85;2.10;;;;;;;27.52;90.52;98972.09;1756361;80;20937;-70
2021/08/03 08:12:03;;;;;;;6.40;2.65;;;;;;;27.61;85.49;98969.17;1753436;80;21005;-69
2021/08/03 08:14:36;;;;;;;8.95;3.33;;;;;;;27.67;82.56;98966.47;1756224;80;20997;-69
2021/08/03 08:17:03;;;;;;;9.90;5.40;;;;;;;27.72;82.54;98961.55;1751413;80;21471;-71
2021/08/03 08:19:33;;;;;;;4.28;3.10;;;;;;;27.73;81.65;98965.98;1756105;80;21485;-70
2021/08/03 08:22:01;;;;;;;7.75;4.47;;;;;;;27.74;79.98;98968.58;1752165;80;21035;-70
2021/08/03 08:24:30;;;;;;;2.42;2.15;;;;;;;27.78;78.60;98963.28;1752471;80;21519;-70
2021/08/03 08:26:59;;;;;;;4.87;2.20;;;;;;;27.81;76.85;98960.81;1756741;80;21040;-71
2021/08/03 08:29:27;;;;;;;2.27;2.00;;;;;;;27.83;73.02;98962.91;1756218;80;21133;-69
2021/08/03 08:31:56;;;;;;;4.45;2.08;;;;;;;27.83;72.95;98955.64;1756254;80;20894;-69
2021/08/03 08:34:25;;;;;;;4.95;2.62;;;;;;;27.86;76.32;98955.39;1751975;80;21491;-69
2021/08/03 08:36:53;;;;;;;6.78;3.00;;;;;;;27.94;77.88;98947.17;1756983;80;20862;-69
2021/08/03 08:39:20;;;;;;;8.10;3.52;;;;;;;27.97;76.74;98958.63;1756630;80;21044;-69
2021/08/03 08:41:48;;;;;;;73.02;5.50;;;;;;;27.97;75.96;98959.98;1756051;80;21174;-69
2021/08/03 08:44:17;;;;;;;7.87;2.52;;;;;;;27.96;73.20;98954.69;1760866;80;21631;-70
2021/08/03 08:46:45;;;;;;;3.37;1.90;;;;;;;27.94;71.03;98953.95;1755580;80;20894;-70
2021/08/03 08:49:16;;;;;;;3.92;1.90;;;;;;;27.92;68.29;98950.50;1758057;80;20975;-69
2021/08/03 08:51:44;;;;;;;4.25;2.42;;;;;;;27.85;66.93;98941.47;1753726;81;21455;-69
2021/08/03 08:54:12;;;;;;;4.28;2.08;;;;;;;27.82;67.43;98946.28;1758717;80;21157;-69
2021/08/03 08:56:41;;;;;;;1.70;1.60;;;;;;;27.86;69.64;98948.62;1756462;80;21586;-69
2021/08/03 08:59:10;;;;;;;6.28;2.00;;;;;;;27.95;70.93;98950.25;1755035;80;21029;-69
2021/08/03 09:01:38;;;;;;;4.15;2.10;;;;;;;28.01;69.74;98950.62;1757675;80;20980;-68
2021/08/03 09:04:07;;;;;;;5.12;2.10;;;;;;;28.01;65.73;98954.69;1757404;80;21472;-69
2021/08/03 09:06:35;;;;;;;4.83;2.10;;;;;;;27.98;66.46;98955.42;1756209;81;21158;-68
2021/08/03 09:09:19;;;;;;;7.10;2.45;;;;;;;27.95;66.63;98954.32;1750700;80;20915;-69
2021/08/03 09:11:47;;;;;;;3.35;2.77;;;;;;;27.97;68.41;98948.28;1754887;81;21041;-68
2021/08/03 09:14:16;;;;;;;2.62;2.27;;;;;;;27.97;67.31;98950.50;1762963;81;21033;-68
2021/08/03 09:16:48;;;;;;;4.25;2.50;;;;;;;27.99;67.74;98949.87;1751610;81;21518;-67
2021/08/03 09:19:38;;;;;;;3.95;2.30;;;;;;;27.98;67.89;98953.58;1745625;80;20929;-69
2021/08/03 09:22:22;;;;;;;2.87;2.30;;;;;;;27.95;66.11;98954.32;1755973;80;21409;-68
2021/08/03 09:25:10;;;;;;;6.05;2.50;;;;;;;27.94;66.99;98960.23;1756143;80;21592;-70
2021/08/03 09:27:47;;;;;;;3.65;2.25;;;;;;;27.99;68.56;98959.38;1751294;80;22151;-70
2021/08/03 09:30:27;;;;;;;17.27;3.27;;;;;;;28.07;65.29;98960.97;1753822;80;20945;-68
2021/08/03 09:32:55;;;;;;;5.25;2.33;;;;;;;28.24;67.55;98953.34;1755167;80;21129;-68
2021/08/03 09:35:24;;;;;;;5.45;2.60;;;;;;;28.43;66.47;98957.16;1757558;80;21609;-69
2021/08/03 09:37:53;;;;;;;3.02;2.20;;;;;;;28.59;66.07;98959.95;1757126;80;21492;-68
2021/08/03 09:40:30;;;;;;;4.72;3.20;;;;;;;28.65;62.72;98952.16;1761302;80;21712;-69
2021/08/03 09:43:04;;;;;;;5.97;3.30;;;;;;;28.63;60.63;98954.14;1753555;80;20889;-68
2021/08/03 09:45:46;;;;;;;3.60;2.45;;;;;;;28.58;58.85;98956.38;1749842;80;21205;-68
2021/08/03 09:48:22;;;;;;;8.28;2.33;;;;;;;28.55;57.43;98949.85;1742467;80;21498;-67
2021/08/03 09:51:08;;;;;;;5.50;2.35;;;;;;;28.63;59.86;98948.72;1755490;80;21483;-68
2021/08/03 09:53:49;;;;;;;2.58;2.00;;;;;;;28.73;59.61;98946.09;1753354;80;20949;-68
2021/08/03 09:56:34;;;;;;;3.15;2.40;;;;;;;28.79;57.41;98946.94;1752062;80;21529;-69
2021/08/03 09:59:04;;;;;;;6.30;2.20;;;;;;;28.86;58.13;98940.56;1675335;83;21887;-66
2021/08/03 10:01:34;;;;;;;;;;;;;;;28.99;60.39;98934.45;1747470;80;20891;-69
2021/08/03 10:04:08;;;;;;;3.45;1.92;;;;;;;29.09;58.54;98940.81;1752095;80;20431;-69
2021/08/03 10:06:38;;;;;;;7.72;2.10;;;;;;;29.19;57.27;98934.96;1730440;80;20948;-68
2021/08/03 10:09:08;;;;;;;4.80;2.27;;;;;;;29.33;55.02;98941.45;1757782;80;21563;-70
2021/08/03 10:11:37;;;;;;;2.33;2.10;;;;;;;29.44;55.87;98940.55;1749163;80;21136;-70
2021/08/03 10:14:05;;;;;;;4.15;2.22;;;;;;;29.51;54.46;98940.38;1755342;80;21559;-70
2021/08/03 10:16:34;;;;;;;5.55;2.12;;;;;;;29.57;52.84;98939.84;1758941;79;21479;-68
2021/08/03 10:19:04;;;;;;;2.35;1.90;;;;;;;29.67;53.39;98929.88;1754361;80;20953;-66
2021/08/03 10:21:42;;;;;;;4.92;2.22;;;;;;;29.78;53.29;98934.37;1736023;80;20931;-67
2021/08/03 10:24:25;;;;;;;3.22;2.60;;;;;;;29.92;52.89;98933.17;1759392;80;21080;-69
2021/08/03 10:27:11;;;;;;;3.20;2.20;;;;;;;30.00;50.91;98934.21;1755829;80;21536;-70
2021/08/03 10:29:54;;;;;;;3.90;2.50;;;;;;;29.98;49.94;98935.34;1741681;81;21443;-70
2021/08/03 10:32:44;;;;;;;4.05;2.30;;;;;;;29.92;49.73;98935.39;1713796;81;21501;-68
2021/08/03 10:35:18;;;;;;;2.35;2.08;;;;;;;29.92;51.75;98935.39;1760589;80;21550;-68
2021/08/03 10:38:06;;;;;;;3.15;2.27;;;;;;;29.95;50.07;98929.69;1758724;80;20879;-68
2021/08/03 10:40:48;;;;;;;5.22;2.12;;;;;;;29.98;50.68;98927.19;1756136;80;20933;-69
2021/08/03 10:43:22;;;;;;;7.95;2.10;;;;;;;30.00;50.38;98927.91;1747324;80;20949;-68
2021/08/03 10:46:16;;;;;;;3.02;1.90;;;;;;;29.99;48.99;98927.55;1749685;80;21025;-68
2021/08/03 10:48:47;;;;;;;105.35;7.87;;;;;;;30.03;48.89;98923.09;1740044;80;21502;-67
2021/08/03 10:51:25;;;;;;;5.62;2.45;;;;;;;30.02;48.54;98931.38;1758740;81;21148;-67
2021/08/03 10:54:02;;;;;;;7.92;2.00;;;;;;;29.95;47.63;98924.73;1756357;81;20897;-67
2021/08/03 10:56:30;;;;;;;3.50;2.20;;;;;;;29.91;47.95;98921.94;1759086;80;21479;-68
2021/08/03 10:59:28;;;;;;;7.87;2.37;;;;;;;29.95;49.80;98924.73;1757088;80;20900;-67
2021/08/03 11:01:57;;;;;;;2.45;1.92;;;;;;;29.99;50.79;98925.69;1749432;81;20854;-67
2021/08/03 11:04:54;;;;;;;8.38;2.50;;;;;;;30.01;48.86;98918.25;1760289;80;21171;-65
2021/08/03 11:07:30;;;;;;;5.53;2.08;;;;;;;30.03;48.57;98924.45;1760026;80;21456;-66
2021/08/03 11:10:21;;;;;;;8.30;2.02;;;;;;;30.03;49.38;98925.81;1759007;80;21424;-67
2021/08/03 11:12:51;;;;;;;;;;;;;;;30.04;50.26;98928.03;1738038;82;20896;-67
2021/08/03 11:15:26;;;;;;;2.30;2.08;;;;;;;30.12;50.73;98924.62;1735229;82;20119;-68
2021/08/03 11:18:08;;;;;;;5.33;1.95;;;;;;;30.23;49.49;98916.34;1733631;82;21166;-68
2021/08/03 11:20:45;;;;;;;3.30;2.25;;;;;;;30.35;49.90;98916.63;1741109;82;20960;-68
2021/08/03 11:23:17;;;;;;;2.20;2.00;;;;;;;30.53;50.20;98918.16;1736577;82;20943;-69
2021/08/03 11:25:47;;;;;;;3.00;2.22;;;;;;;30.67;47.53;98917.77;1733714;82;21451;-68
2021/08/03 11:28:20;;;;;;;3.92;2.12;;;;;;;30.72;46.92;98918.70;1732398;82;20932;-68
2021/08/03 11:30:50;;;;;;;4.10;2.10;;;;;;;30.67;46.35;98924.08;1735368;82;21759;-67
2021/08/03 11:33:19;;;;;;;2.37;1.70;;;;;;;30.60;47.72;98922.06;1734743;82;20952;-68
2021/08/03 11:35:47;;;;;;;2.70;1.72;;;;;;;30.57;46.15;98913.64;1729787;82;20904;-66
2021/08/03 11:38:19;;;;;;;2.85;1.92;;;;;;;30.61;46.34;98912.89;1718611;82;21096;-67
2021/08/03 11:40:48;;;;;;;11.93;2.45;;;;;;;30.69;45.54;98914.41;1721836;82;21000;-67
2021/08/03 11:43:17;;;;;;;4.12;1.90;;;;;;;30.72;46.02;98901.00;1728799;82;21259;-67
2021/08/03 11:45:45;;;;;;;5.78;1.95;;;;;;;30.77;45.56;98906.41;1721242;82;20892;-66
2021/08/03 11:48:18;;;;;;;2.55;1.90;;;;;;;30.81;44.98;98906.48;1717092;82;20953;-67
2021/08/03 11:50:46;;;;;;;2.35;1.85;;;;;;;30.94;45.87;98906.20;1740261;82;21544;-69